createdAt,value
2022-12-07T00:01:30.944Z,100229.25
2022-12-07T00:04:05.992Z,100218.78
2022-12-07T00:06:34.947Z,100157.34
2022-12-07T00:09:03.223Z,100215.16
2022-12-07T00:11:31.269Z,100160.78
2022-12-07T00:14:01.896Z,100183.53
2022-12-07T00:16:32.710Z,100221.31
2022-12-07T00:19:02.861Z,100225.72
2022-12-07T00:21:33.658Z,100217.88
2022-12-07T00:24:02.793Z,100216.94
2022-12-07T00:26:32.615Z,100152.84
2022-12-07T00:29:04.569Z,100218.78
2022-12-07T00:31:36.191Z,100213.47
2022-12-07T00:34:05.616Z,100208.06
2022-12-07T00:36:33.585Z,100212.47
2022-12-07T00:39:03.446Z,100174.56
2022-12-07T00:41:32.521Z,100210.50
2022-12-07T00:44:00.737Z,100207.09
2022-12-07T00:46:28.998Z,100149.94
2022-12-07T00:48:57.122Z,100172.50
2022-12-07T00:51:27.767Z,100182.19
2022-12-07T00:53:56.800Z,100145.19
2022-12-07T00:56:26.290Z,100186.38
2022-12-07T00:58:56.839Z,100095.13
2022-12-07T01:01:26.086Z,100173.69
2022-12-07T01:03:54.210Z,100174.78
2022-12-07T01:06:24.543Z,100125.72
2022-12-07T01:08:54.561Z,100155.59
2022-12-07T01:11:24.734Z,100182.47
2022-12-07T01:13:53.315Z,100169.22
2022-12-07T01:16:22.779Z,100143.91
2022-12-07T01:18:52.978Z,100185.69
2022-12-07T01:21:22.741Z,100185.88
2022-12-07T01:23:51.518Z,100170.09
2022-12-07T01:26:25.007Z,100182.28
2022-12-07T01:28:55.876Z,100186.72
2022-12-07T01:31:25.582Z,100161.19
2022-12-07T01:33:55.172Z,100176.22
2022-12-07T01:36:25.411Z,100184.09
2022-12-07T01:38:54.096Z,100178.94
2022-12-07T01:41:23.671Z,100177.03
2022-12-07T01:44:17.478Z,100159.47
2022-12-07T01:46:47.654Z,100174.41
2022-12-07T01:49:23.490Z,100171.56
2022-12-07T01:51:54.361Z,100175.09
2022-12-07T01:54:23.585Z,100131.22
2022-12-07T01:56:57.581Z,100167.19
2022-12-07T01:59:27.532Z,100160.03
2022-12-07T02:01:57.415Z,100056.63
2022-12-07T02:04:26.010Z,100146.94
2022-12-07T02:06:56.000Z,100165.28
2022-12-07T02:09:23.983Z,100167.84
2022-12-07T02:11:54.361Z,100147.56
2022-12-07T02:14:22.604Z,100156.31
2022-12-07T02:17:04.597Z,100141.34
2022-12-07T02:20:06.200Z,100158.84
2022-12-07T02:23:02.413Z,100154.59
2022-12-07T02:25:47.484Z,100096.56
2022-12-07T02:28:25.555Z,100161.44
2022-12-07T02:30:57.966Z,100157.19
2022-12-07T02:33:30.850Z,100038.03
2022-12-07T02:36:04.217Z,100137.69
2022-12-07T02:38:40.625Z,100130.59
2022-12-07T02:41:14.304Z,100152.53
2022-12-07T02:43:47.948Z,100149.81
2022-12-07T02:46:23.329Z,100123.69
2022-12-07T02:48:52.147Z,100142.13
2022-12-07T02:51:20.804Z,100153.69
2022-12-07T02:53:48.690Z,100132.56
2022-12-07T02:56:26.374Z,100120.25
2022-12-07T02:59:09.827Z,100075.59
2022-12-07T03:01:50.785Z,100146.63
2022-12-07T03:04:32.546Z,100136.97
2022-12-07T03:07:06.666Z,100137.69
2022-12-07T03:09:40.113Z,100005.66
2022-12-07T03:12:15.104Z,100137.94
2022-12-07T03:14:50.302Z,100137.91
2022-12-07T03:17:24.137Z,100132.59
2022-12-07T03:20:00.126Z,100137.91
2022-12-07T03:22:32.389Z,100139.84
2022-12-07T03:25:05.056Z,100137.03
2022-12-07T03:27:38.167Z,100096.81
2022-12-07T03:30:11.574Z,100134.44
2022-12-07T03:32:46.878Z,100121.97
2022-12-07T03:35:18.520Z,100130.00
2022-12-07T03:37:50.631Z,100083.56
2022-12-07T03:40:24.870Z,100132.59
2022-12-07T03:42:55.955Z,100130.91
2022-12-07T03:45:28.541Z,100112.53
2022-12-07T03:48:07.887Z,100048.44
2022-12-07T03:50:46.079Z,100118.53
2022-12-07T03:53:19.748Z,100133.56
2022-12-07T03:55:50.650Z,100117.59
2022-12-07T03:58:21.639Z,100117.53
2022-12-07T04:00:52.071Z,100107.97
2022-12-07T04:03:21.549Z,100080.91
2022-12-07T04:05:50.913Z,100103.53
2022-12-07T04:08:19.028Z,100121.28
2022-12-07T04:10:47.374Z,100127.28
2022-12-07T04:13:15.587Z,100123.03
2022-12-07T04:15:43.747Z,100115.13
2022-12-07T04:18:11.979Z,100127.47
2022-12-07T04:20:42.226Z,100127.59
2022-12-07T04:23:10.554Z,100128.50
2022-12-07T04:25:38.552Z,100130.13
2022-12-07T04:28:06.732Z,100128.41
2022-12-07T04:30:34.698Z,100063.59
2022-12-07T04:33:02.691Z,100123.94
2022-12-07T04:35:31.027Z,100135.41
2022-12-07T04:38:00.320Z,100137.16
2022-12-07T04:40:28.648Z,100124.13
2022-12-07T04:42:56.628Z,100130.97
2022-12-07T04:45:24.610Z,100130.09
2022-12-07T04:47:52.496Z,100132.69
2022-12-07T04:50:20.642Z,100129.19
2022-12-07T04:52:48.526Z,100089.00
2022-12-07T04:55:18.071Z,100117.72
2022-12-07T04:57:46.107Z,100136.09
2022-12-07T05:00:14.376Z,100131.78
2022-12-07T05:02:42.382Z,100125.47
2022-12-07T05:05:10.665Z,100119.44
2022-12-07T05:07:38.770Z,100126.47
2022-12-07T05:10:08.214Z,100129.88
2022-12-07T05:12:37.782Z,100128.06
2022-12-07T05:15:06.860Z,100121.09
2022-12-07T05:17:35.104Z,100121.03
2022-12-07T05:20:03.452Z,100124.75
2022-12-07T05:22:31.762Z,100101.81
2022-12-07T05:25:00.039Z,100124.44
2022-12-07T05:27:28.139Z,100075.50
2022-12-07T05:29:57.736Z,100119.38
2022-12-07T05:32:25.719Z,100128.13
2022-12-07T05:34:55.729Z,100125.41
2022-12-07T05:37:23.718Z,100127.16
2022-12-07T05:39:51.956Z,100133.38
2022-12-07T05:42:20.204Z,100125.50
2022-12-07T05:44:48.749Z,100112.41
2022-12-07T05:47:18.398Z,100108.03
2022-12-07T05:49:46.794Z,100122.16
2022-12-07T05:52:14.864Z,100085.25
2022-12-07T05:54:42.948Z,100111.75
2022-12-07T05:57:11.266Z,99935.56
2022-12-07T05:59:38.495Z,100118.69
2022-12-07T06:02:08.903Z,100110.56
2022-12-07T06:04:40.689Z,100115.00
2022-12-07T06:07:09.809Z,100116.66
2022-12-07T06:09:38.674Z,100115.16
2022-12-07T06:12:24.873Z,100118.66
2022-12-07T06:14:53.335Z,100110.63
2022-12-07T06:17:21.388Z,100101.06
2022-12-07T06:19:50.906Z,100007.31
2022-12-07T06:22:19.642Z,100119.50
2022-12-07T06:24:47.745Z,100114.19
2022-12-07T06:27:16.158Z,100094.03
2022-12-07T06:29:44.447Z,100115.06
2022-12-07T06:32:13.196Z,100115.06
2022-12-07T06:34:41.534Z,99995.13
2022-12-07T06:37:10.893Z,100119.47
2022-12-07T06:39:40.034Z,100113.34
2022-12-07T06:42:08.115Z,100101.06
2022-12-07T06:44:36.212Z,100116.88
2022-12-07T06:47:38.895Z,100128.50
2022-12-07T06:49:53.530Z,100128.56
2022-12-07T06:52:22.829Z,100125.72
2022-12-07T06:54:50.870Z,100125.00
2022-12-07T06:57:18.892Z,100131.19
2022-12-07T06:59:47.022Z,100083.06
2022-12-07T07:02:15.038Z,100132.16
2022-12-07T07:04:43.092Z,100139.19
2022-12-07T07:07:11.201Z,100131.22
2022-12-07T07:09:40.641Z,100139.19
2022-12-07T07:12:08.579Z,100126.59
2022-12-07T07:14:36.994Z,100140.91
2022-12-07T07:17:05.100Z,100135.72
2022-12-07T07:19:33.253Z,100073.44
2022-12-07T07:22:01.222Z,100098.09
2022-12-07T07:24:29.257Z,100139.19
2022-12-07T07:26:58.613Z,100115.63
2022-12-07T07:29:26.587Z,100152.53
2022-12-07T07:31:54.720Z,100141.78
2022-12-07T07:34:22.677Z,100138.38
2022-12-07T07:36:50.939Z,100147.06
2022-12-07T07:39:18.929Z,100146.44
2022-12-07T07:41:46.866Z,100153.41
2022-12-07T07:44:33.217Z,100139.34
2022-12-07T07:47:03.005Z,100148.16
2022-12-07T07:49:31.150Z,100150.81
2022-12-07T07:51:59.094Z,100148.06
2022-12-07T07:54:27.047Z,100122.69
2022-12-07T07:56:55.395Z,100148.13
2022-12-07T07:59:23.632Z,100142.97
2022-12-07T08:01:53.085Z,100160.47
2022-12-07T08:04:21.645Z,100154.38
2022-12-07T08:06:50.112Z,100106.06
2022-12-07T08:09:18.097Z,100153.47
2022-12-07T08:11:46.366Z,100159.47
2022-12-07T08:14:14.379Z,100079.78
2022-12-07T08:16:42.292Z,100152.63
2022-12-07T08:19:11.800Z,100159.47
2022-12-07T08:21:39.990Z,100161.25
2022-12-07T08:24:08.254Z,100163.91
2022-12-07T08:26:36.247Z,100156.94
2022-12-07T08:29:04.314Z,100176.19
2022-12-07T08:31:32.555Z,100140.41
2022-12-07T08:34:00.733Z,100175.56
2022-12-07T08:36:30.102Z,100171.19
2022-12-07T08:41:46.299Z,100174.63
2022-12-07T08:44:14.291Z,100159.72
2022-12-07T08:46:46.829Z,100170.09
2022-12-07T08:49:18.750Z,100169.16
2022-12-07T08:51:49.085Z,100106.97
2022-12-07T08:54:18.834Z,100165.63
2022-12-07T08:56:49.480Z,100162.97
2022-12-07T08:59:21.207Z,100166.50
2022-12-07T09:01:49.346Z,100169.97
2022-12-07T09:04:17.647Z,100167.38
2022-12-07T09:06:45.859Z,100143.72
2022-12-07T09:09:16.760Z,100106.97
2022-12-07T09:11:46.236Z,100177.13
2022-12-07T09:14:14.868Z,100175.38
2022-12-07T09:16:42.842Z,100177.22
2022-12-07T09:19:11.234Z,100179.88
2022-12-07T09:21:39.260Z,100182.47
2022-12-07T09:24:08.251Z,100176.38
2022-12-07T09:26:37.598Z,100184.09
2022-12-07T09:29:05.648Z,100184.94
2022-12-07T09:31:33.797Z,100188.41
2022-12-07T09:34:02.891Z,100185.63
2022-12-07T09:36:31.430Z,100164.34
2022-12-07T09:38:59.741Z,100183.97
2022-12-07T09:41:29.672Z,100184.69
2022-12-07T09:44:05.425Z,100178.53
2022-12-07T09:46:38.885Z,100178.53
2022-12-07T09:49:09.889Z,100172.38
2022-12-07T09:51:37.937Z,100179.47
2022-12-07T09:54:06.060Z,100176.69
2022-12-07T09:56:34.388Z,100176.50
2022-12-07T09:59:05.335Z,100152.88
2022-12-07T10:01:35.581Z,100167.91
2022-12-07T10:04:09.263Z,100170.41
2022-12-07T10:06:37.330Z,100166.81
2022-12-07T10:09:11.880Z,100140.72
2022-12-07T10:12:01.061Z,100164.41
2022-12-07T10:17:37.512Z,100166.13
2022-12-07T10:20:18.535Z,100160.78
2022-12-07T10:23:01.351Z,100167.53
2022-12-07T10:25:34.008Z,100169.13
2022-12-07T10:28:05.335Z,100167.41
2022-12-07T10:30:35.801Z,100162.22
2022-12-07T10:33:03.792Z,100161.19
2022-12-07T10:35:32.662Z,100135.69
2022-12-07T10:38:02.097Z,100149.63
2022-12-07T10:40:35.110Z,100138.94
2022-12-07T10:43:05.800Z,100062.59
2022-12-07T10:46:03.193Z,100158.28
2022-12-07T10:48:43.387Z,100150.28
2022-12-07T10:51:21.782Z,100101.31
2022-12-07T10:54:05.938Z,100151.91
2022-12-07T10:56:52.839Z,100132.97
2022-12-07T10:59:48.409Z,100151.13
2022-12-07T11:02:34.524Z,100029.25
2022-12-07T11:05:18.236Z,100089.53
2022-12-07T11:07:57.329Z,99940.75
2022-12-07T11:10:31.959Z,100148.97
2022-12-07T11:13:14.497Z,100091.22
2022-12-07T11:15:58.444Z,100111.56
2022-12-07T11:18:33.478Z,100137.63
2022-12-07T11:21:11.533Z,100117.38
2022-12-07T11:23:50.568Z,100129.72
2022-12-07T11:26:34.333Z,100103.47
2022-12-07T11:29:16.137Z,100108.56
2022-12-07T11:31:59.848Z,100019.44
2022-12-07T11:34:38.826Z,100107.78
2022-12-07T11:37:13.883Z,100112.63
2022-12-07T11:39:48.975Z,100121.44
2022-12-07T11:42:24.386Z,100108.09
2022-12-07T11:44:55.937Z,100109.97
2022-12-07T11:47:32.512Z,100093.00
2022-12-07T11:50:12.589Z,100076.06
2022-12-07T11:52:49.729Z,100009.09
2022-12-07T11:55:25.755Z,100096.59
2022-12-07T11:58:02.657Z,100102.78
2022-12-07T12:00:31.121Z,100080.84
2022-12-07T12:03:04.300Z,100090.44
2022-12-07T12:05:33.980Z,100077.16
2022-12-07T12:11:14.987Z,100083.84
2022-12-07T12:17:22.428Z,100075.91
2022-12-07T12:20:02.774Z,100078.44
2022-12-07T12:22:36.103Z,100074.81
2022-12-07T12:25:07.424Z,100073.91
2022-12-07T12:27:39.208Z,100081.06
2022-12-07T12:30:26.045Z,100012.81
2022-12-07T12:32:54.280Z,100045.28
2022-12-07T12:35:31.278Z,100066.38
2022-12-07T12:40:52.875Z,100051.28
2022-12-07T12:43:50.133Z,100074.00
2022-12-07T12:46:50.227Z,100071.25
2022-12-07T12:49:46.418Z,100065.94
2022-12-07T12:52:50.685Z,100065.78
2022-12-07T12:55:44.120Z,100051.66
2022-12-07T12:58:33.717Z,100055.13
2022-12-07T13:01:48.432Z,100052.38
2022-12-07T13:04:28.714Z,100054.19
2022-12-07T13:06:56.669Z,100048.72
2022-12-07T13:09:28.448Z,100020.94
2022-12-07T13:12:06.310Z,100048.13
2022-12-07T13:14:46.008Z,100046.31
2022-12-07T13:17:34.650Z,100047.34
2022-12-07T13:20:03.781Z,100019.28
2022-12-07T13:22:53.038Z,100046.41
2022-12-07T13:25:29.618Z,100052.78
2022-12-07T13:28:02.942Z,100041.28
2022-12-07T13:30:33.878Z,100030.81
2022-12-07T13:33:02.333Z,100038.94
2022-12-07T13:35:36.480Z,100043.03
2022-12-07T13:38:08.363Z,100039.44
2022-12-07T13:40:36.781Z,100029.69
2022-12-07T13:43:14.605Z,100034.94
2022-12-07T13:45:50.999Z,100029.78
2022-12-07T13:48:26.617Z,100023.69
2022-12-07T13:50:55.701Z,100023.34
2022-12-07T13:53:24.010Z,100020.59
2022-12-07T13:55:54.513Z,100022.47
2022-12-07T13:58:23.940Z,100013.50
2022-12-07T14:00:53.921Z,99998.69
2022-12-07T14:03:30.965Z,99964.69
2022-12-07T14:06:16.588Z,99998.81
2022-12-07T14:08:45.206Z,100009.22
2022-12-07T14:11:19.095Z,100010.94
2022-12-07T14:13:57.869Z,100015.25
2022-12-07T14:16:30.650Z,100010.91
2022-12-07T14:19:00.299Z,100017.53
2022-12-07T14:21:30.788Z,100000.66
2022-12-07T14:24:12.475Z,100005.19
2022-12-07T14:26:41.801Z,100023.44
2022-12-07T14:29:33.985Z,100020.78
2022-12-07T14:32:29.207Z,99947.28
2022-12-07T14:34:58.577Z,99974.63
2022-12-07T14:37:27.471Z,100000.69
2022-12-07T14:39:55.463Z,99913.16
2022-12-07T14:42:26.469Z,99958.84
2022-12-07T14:44:54.467Z,99972.63
2022-12-07T14:50:14.971Z,99995.63
2022-12-07T14:55:33.865Z,99996.66
2022-12-07T14:58:02.108Z,100007.59
2022-12-07T15:00:30.898Z,99998.63
2022-12-07T15:03:00.401Z,100009.06
2022-12-07T15:05:28.567Z,99996.72
2022-12-07T15:07:56.601Z,99923.41
2022-12-07T15:10:30.400Z,99965.47
2022-12-07T15:13:19.426Z,99965.53
2022-12-07T15:15:47.823Z,100006.25
2022-12-07T15:18:17.870Z,100004.59
2022-12-07T15:20:46.196Z,100007.59
2022-12-07T15:23:15.002Z,99998.97
2022-12-07T15:25:43.452Z,100002.75
2022-12-07T15:28:11.592Z,99973.50
2022-12-07T15:30:39.997Z,99993.88
2022-12-07T15:33:07.954Z,99972.31
2022-12-07T15:35:40.771Z,99889.13
2022-12-07T15:38:09.171Z,99992.38
2022-12-07T15:40:37.662Z,99920.75
2022-12-07T15:43:26.412Z,99985.75
2022-12-07T15:45:53.419Z,99959.16
2022-12-07T15:48:29.629Z,99986.47
2022-12-07T15:51:06.648Z,99988.19
2022-12-07T15:53:36.409Z,99987.72
2022-12-07T15:56:09.191Z,99980.97
2022-12-07T15:58:37.142Z,99977.25
2022-12-07T16:01:12.718Z,99985.13
2022-12-07T16:03:40.772Z,99989.34
2022-12-07T16:06:10.285Z,99990.28
2022-12-07T16:08:38.585Z,99994.44
2022-12-07T16:11:08.081Z,99993.56
2022-12-07T16:13:36.185Z,99936.53
2022-12-07T16:16:05.845Z,99991.19
2022-12-07T16:18:40.221Z,99983.41
2022-12-07T16:21:08.560Z,99991.50
2022-12-07T16:23:38.026Z,99986.03
2022-12-07T16:26:08.484Z,99981.38
2022-12-07T16:28:36.834Z,99982.13
2022-12-07T16:31:07.817Z,99985.81
2022-12-07T16:33:37.060Z,99987.53
2022-12-07T16:36:08.830Z,99981.25
2022-12-07T16:38:39.467Z,99982.00
2022-12-07T16:41:08.547Z,99983.81
2022-12-07T16:43:37.656Z,99986.63
2022-12-07T16:46:06.680Z,99986.59
2022-12-07T16:48:38.947Z,99975.44
2022-12-07T16:51:09.615Z,99981.28
2022-12-07T16:53:41.781Z,99978.69
2022-12-07T16:56:13.624Z,99977.75
2022-12-07T16:58:43.011Z,99976.09
2022-12-07T17:01:12.643Z,99974.34
2022-12-07T17:03:40.963Z,99951.56
2022-12-07T17:06:15.496Z,99962.69
2022-12-07T17:08:45.254Z,99965.25
2022-12-07T17:11:14.855Z,99966.31
2022-12-07T17:14:00.738Z,99961.66
2022-12-07T17:16:29.090Z,99957.38
2022-12-07T17:18:57.345Z,99955.56
2022-12-07T17:21:25.595Z,99929.44
2022-12-07T17:23:55.077Z,99931.31
2022-12-07T17:26:28.376Z,99946.06
2022-12-07T17:29:01.019Z,99925.19
2022-12-07T17:31:29.225Z,99903.44
2022-12-07T17:33:57.426Z,99942.75
2022-12-07T17:36:28.780Z,99839.91
2022-12-07T17:38:59.187Z,99942.03
2022-12-07T17:41:46.770Z,99942.19
2022-12-07T17:44:19.778Z,99944.72
2022-12-07T17:46:49.988Z,99935.88
2022-12-07T17:49:19.067Z,99921.84
2022-12-07T17:52:05.125Z,99942.63
2022-12-07T17:54:35.133Z,99942.03
2022-12-07T17:57:03.458Z,99926.41
2022-12-07T17:59:31.692Z,99944.25
2022-12-07T18:02:00.669Z,99942.44
2022-12-07T18:04:28.821Z,99939.59
2022-12-07T18:06:57.090Z,99926.50
2022-12-07T18:09:25.400Z,99902.81
2022-12-07T18:11:54.839Z,99904.53
2022-12-07T18:14:22.949Z,99877.28
2022-12-07T18:16:51.048Z,99911.41
2022-12-07T18:19:19.151Z,99928.97
2022-12-07T18:21:48.139Z,99917.75
2022-12-07T18:24:18.089Z,99923.94
2022-12-07T18:26:48.024Z,99919.47
2022-12-07T18:29:19.657Z,99926.16
2022-12-07T18:31:48.902Z,99925.66
2022-12-07T18:34:18.836Z,99930.22
2022-12-07T18:36:49.727Z,99919.34
2022-12-07T18:39:18.933Z,99922.78
2022-12-07T18:41:47.512Z,99910.59
2022-12-07T18:44:17.746Z,99833.63
2022-12-07T18:46:46.467Z,99880.72
2022-12-07T18:49:16.529Z,99897.84
2022-12-07T18:51:46.668Z,99909.63
2022-12-07T18:54:15.756Z,99910.50
2022-12-07T18:56:44.398Z,99910.38
2022-12-07T18:59:32.679Z,99906.00
2022-12-07T19:02:03.264Z,99903.28
2022-12-07T19:04:32.609Z,99907.97
2022-12-07T19:07:01.709Z,99845.72
2022-12-07T19:09:29.632Z,99903.56
2022-12-07T19:12:03.486Z,99907.03
2022-12-07T19:14:35.536Z,99906.03
2022-12-07T19:17:08.067Z,99905.16
2022-12-07T19:19:38.775Z,99900.13
2022-12-07T19:22:08.237Z,99880.81
2022-12-07T19:24:37.382Z,99825.44
2022-12-07T19:27:05.831Z,99891.88
2022-12-07T19:29:34.841Z,99873.84
2022-12-07T19:32:09.020Z,99811.50
2022-12-07T19:34:37.409Z,99898.06
2022-12-07T19:37:06.422Z,99889.47
2022-12-07T19:39:38.037Z,99879.06
2022-12-07T19:42:07.092Z,99898.34
2022-12-07T19:44:35.075Z,99883.44
2022-12-07T19:47:06.021Z,99873.13
2022-12-07T19:49:36.191Z,99884.53
2022-12-07T19:52:09.040Z,99873.06
2022-12-07T19:54:39.227Z,99885.38
2022-12-07T19:57:09.703Z,99875.66
2022-12-07T19:59:38.535Z,99881.78
2022-12-07T20:02:08.375Z,99872.78
2022-12-07T20:04:36.652Z,99873.66
2022-12-07T20:07:05.269Z,99823.66
2022-12-07T20:09:33.858Z,99854.66
2022-12-07T20:12:19.571Z,99851.94
2022-12-07T20:14:47.751Z,99845.78
2022-12-07T20:17:17.348Z,99833.69
2022-12-07T20:19:47.008Z,99820.56
2022-12-07T20:22:15.576Z,99840.63
2022-12-07T20:24:43.708Z,99799.47
2022-12-07T20:27:12.559Z,99820.22
2022-12-07T20:29:40.957Z,99835.41
2022-12-07T20:32:13.144Z,99831.88
2022-12-07T20:34:44.493Z,99832.69
2022-12-07T20:37:13.119Z,99819.31
2022-12-07T20:39:41.770Z,99826.38
2022-12-07T20:42:29.211Z,99811.34
2022-12-07T20:45:02.708Z,99815.41
2022-12-07T20:47:31.980Z,99814.41
2022-12-07T20:50:02.403Z,99785.66
2022-12-07T20:52:31.251Z,99814.78
2022-12-07T20:54:59.319Z,99815.66
2022-12-07T20:57:27.348Z,99812.91
2022-12-07T20:59:55.365Z,99818.41
2022-12-07T21:02:23.419Z,99407.22
2022-12-07T21:04:51.481Z,99806.91
2022-12-07T21:07:20.914Z,99813.06
2022-12-07T21:09:49.153Z,99804.13
2022-12-07T21:12:17.109Z,99806.91
2022-12-07T21:14:45.482Z,99805.84
2022-12-07T21:17:13.654Z,99805.22
2022-12-07T21:19:42.060Z,99806.84
2022-12-07T21:22:10.047Z,99812.38
2022-12-07T21:24:39.942Z,99808.78
2022-12-07T21:27:08.969Z,99808.88
2022-12-07T21:29:43.626Z,99797.44
2022-12-07T21:32:12.640Z,99812.38
2022-12-07T21:34:40.854Z,99788.66
2022-12-07T21:37:08.805Z,99785.81
2022-12-07T21:39:36.841Z,99791.75
2022-12-07T21:42:06.633Z,99776.84
2022-12-07T21:44:34.803Z,99786.25
2022-12-07T21:47:03.012Z,99765.09
2022-12-07T21:49:31.097Z,99728.66
2022-12-07T21:51:59.007Z,99701.50
2022-12-07T21:54:27.162Z,99775.00
2022-12-07T21:56:55.124Z,99735.72
2022-12-07T21:59:24.508Z,99759.78
2022-12-07T22:01:53.695Z,99759.25
2022-12-07T22:04:24.189Z,99754.84
2022-12-07T22:06:53.438Z,99760.09
2022-12-07T22:09:23.677Z,99767.84
2022-12-07T22:11:51.845Z,99761.81
2022-12-07T22:14:38.002Z,99765.31
2022-12-07T22:17:07.535Z,99735.59
2022-12-07T22:19:35.540Z,99758.22
2022-12-07T22:22:03.506Z,99734.63
2022-12-07T22:24:31.605Z,99728.16
2022-12-07T22:26:59.642Z,99745.66
2022-12-07T22:29:27.779Z,99741.06
2022-12-07T22:31:56.104Z,99758.06
2022-12-07T22:34:25.633Z,99759.63
2022-12-07T22:36:53.582Z,99747.53
2022-12-07T22:39:21.563Z,99722.06
2022-12-07T22:41:49.623Z,99716.94
2022-12-07T22:44:18.922Z,99740.53
2022-12-07T22:46:47.382Z,99707.19
2022-12-07T22:49:15.449Z,99669.97
2022-12-07T22:51:45.081Z,99756.25
2022-12-07T22:54:16.723Z,99756.28
2022-12-07T22:56:45.471Z,99752.50
2022-12-07T22:59:15.290Z,99743.88
2022-12-07T23:01:43.483Z,99747.28
2022-12-07T23:04:11.683Z,99703.53
2022-12-07T23:06:40.162Z,99740.19
2022-12-07T23:09:12.069Z,99730.47
2022-12-07T23:11:59.446Z,99706.06
2022-12-07T23:14:30.546Z,99747.31
2022-12-07T23:16:58.686Z,99718.47
2022-12-07T23:19:27.352Z,99700.00
2022-12-07T23:21:55.708Z,99707.09
2022-12-07T23:24:25.355Z,99713.69
2022-12-07T23:26:54.023Z,99657.97
2022-12-07T23:29:22.129Z,99704.00
2022-12-07T23:31:50.721Z,99711.72
2022-12-07T23:34:18.854Z,99705.69
2022-12-07T23:36:46.927Z,99702.19
2022-12-07T23:39:14.956Z,99699.69
2022-12-07T23:41:44.232Z,99696.28
2022-12-07T23:44:12.956Z,99698.75
2022-12-07T23:46:41.094Z,99694.28
2022-12-07T23:49:09.091Z,99677.78
2022-12-07T23:51:37.160Z,99673.44
2022-12-07T23:54:05.565Z,99667.44
2022-12-07T23:56:35.706Z,99676.50
2022-12-07T23:59:06.364Z,99677.50
